Terminal Aerodrome Forecast
Issued by NWS

Home | Current Version | Previous Version | Text Only | Print | Product List | Glossary Off
Versions: 1 2 3 4 5 6 7 8 9 10 11 12 13 14 15 16 17 18

000
FTUS43 KMPX 202300
TAFRWF
TAF
KRWF 202333Z 2100/2124 18009KT 6SM BR OVC010
     FM210200 16007KT 4SM BR OVC007
     FM211600 15012KT 6SM BR SCT008 OVC014=

USA.gov is the U.S. government's official web portal to all federal, state and local government web resources and services.